Northern Highway — 3EVE6 — position and weather

sailwx.info

Track history (hours):
 
Tides and Currents Weather Stations Pressure Air Temp Water Temp Dewpoint Dewpoint Depression Visibility Wind Speed Wind Dir Waves Ship Positions

Northern Highway

Last reported at 2017-Aug-15 10:18 UTC. Time now 2017-Aug-22 11:10 UTC.
Position S 25°36' E 154°20'.

Length 188 m; draft 6.9 m.

Type: Cargo ship. MMSI: 371608000.

Date/timePositionNaut miles runAvg speedWind from/ knotsBaromVisibWave heightAir tempDewpointWater temp
2017-Aug-15 10:18S 25°36' E 154°20'717.0
2017-Aug-15 09:52S 25°43' E 154°19'616.6
2017-Aug-15 09:30S 25°49' E 154°19'10416.5
2017-Aug-15 03:15S 27°33' E 154°13'1616.8
2017-Aug-15 02:18S 27°49' E 154°12'516.7
2017-Aug-15 02:00S 27°54' E 154°12'1216.3
2017-Aug-15 01:15S 28°06' E 154°11'416.0
2017-Aug-15 00:58S 28°10' E 154°11'816.0
2017-Aug-15 00:29S 28°18' E 154°10'1115.8
2017-Aug-14 23:48S 28°29' E 154°10'25016.0
2017-Aug-14 08:08S 32°31' E 152°56'317.9
2017-Aug-14 07:59S 32°34' E 152°55'818.0
2017-Aug-14 07:30S 32°42' E 152°51'1418.5
2017-Aug-14 06:46S 32°54' E 152°44'518.4
2017-Aug-14 06:30S 32°59' E 152°42'1017.9
2017-Aug-14 05:57S 33°07' E 152°37'32416.4
2017-Aug-13 10:11S 37°57' E 149°37'1915.5
2017-Aug-13 08:55S 38°10' E 149°18'815.4
2017-Aug-13 08:25S 38°14' E 149°10'716.0
2017-Aug-13 08:00S 38°18' E 149°03'816.0
2017-Aug-13 07:30S 38°23' E 148°55'816.1
2017-Aug-13 06:59S 38°28' E 148°47'816.0
2017-Aug-13 06:30S 38°33' E 148°39'916.1
2017-Aug-13 05:57S 38°38' E 148°30'17311.4
2017-Aug-12 14:48S 37°60' E 144°55'514.4
2017-Aug-12 14:27S 37°55' E 144°55'4 8.5
2017-Aug-12 13:59S 37°51' E 144°54'0 0.1
2017-Aug-12 13:25S 37°51' E 144°54'0 0.0
2017-Aug-12 12:55S 37°51' E 144°54'0 0.0
2017-Aug-12 12:28S 37°51' E 144°54'0 0.0
2017-Aug-12 11:46S 37°51' E 144°54'0 0.0
2017-Aug-12 11:22S 37°51' E 144°54'0 0.0
2017-Aug-12 10:58S 37°51' E 144°54'0 0.0
2017-Aug-12 10:28S 37°51' E 144°54'0 0.0
2017-Aug-12 09:58S 37°51' E 144°54'0 0.0
2017-Aug-12 09:25S 37°51' E 144°54'0 0.0
2017-Aug-12 08:55S 37°51' E 144°54'0 0.0
2017-Aug-12 08:25S 37°51' E 144°54'0 0.0
2017-Aug-12 07:58S 37°51' E 144°54'0 0.0
2017-Aug-12 06:40S 37°51' E 144°54'0 0.0
2017-Aug-12 06:28S 37°51' E 144°54'0 0.0
2017-Aug-12 05:58S 37°51' E 144°54'0 0.0
2017-Aug-12 05:10S 37°51' E 144°54'0 0.0
2017-Aug-12 04:58S 37°51' E 144°54'0 0.0
2017-Aug-12 04:25S 37°51' E 144°54'0 0.0
2017-Aug-12 03:49S 37°51' E 144°54'0 0.0
2017-Aug-12 03:28S 37°51' E 144°54'0 0.0
2017-Aug-12 02:55S 37°51' E 144°54'0 0.0
2017-Aug-12 02:28S 37°51' E 144°54'0 0.0
2017-Aug-12 01:40S 37°51' E 144°54'0 0.0
2017-Aug-12 01:28S 37°51' E 144°54'0 0.0
2017-Aug-12 00:40S 37°51' E 144°54'0 0.0
2017-Aug-12 00:22S 37°51' E 144°54'0 0.0
2017-Aug-11 23:49S 37°51' E 144°54'0 0.0
2017-Aug-11 23:19S 37°51' E 144°54'0 0.0
2017-Aug-11 22:56S 37°51' E 144°54'1 1.3
2017-Aug-11 22:28S 37°51' E 144°55'510.3
2017-Aug-11 22:00S 37°56' E 144°55'713.5
2017-Aug-11 21:30S 38°03' E 144°56'36811.4
2017-Aug-10 13:07S 34°47' E 138°28'2 7.6
2017-Aug-10 12:54S 34°46' E 138°29'  
Track history (hours):
 
Tides and Currents Weather Stations Pressure Air Temp Water Temp Dewpoint Dewpoint Depression Visibility Wind Speed Wind Dir Waves Ship Positions

Northern Highway

Last reported at 2017-Aug-15 10:18 UTC. Time now 2017-Aug-22 11:10 UTC.
Position S 25°36' E 154°20'.

Length 188 m; draft 6.9 m.

Type: Cargo ship. MMSI: 371608000.

Date/timePositionNaut miles runAvg speedWind from/ knotsBaromVisibWave heightAir tempDewpointWater temp
2017-Aug-15 10:18S 25°36' E 154°20'717.0
2017-Aug-15 09:52S 25°43' E 154°19'616.6
2017-Aug-15 09:30S 25°49' E 154°19'10416.5
2017-Aug-15 03:15S 27°33' E 154°13'1616.8
2017-Aug-15 02:18S 27°49' E 154°12'516.7
2017-Aug-15 02:00S 27°54' E 154°12'1216.3
2017-Aug-15 01:15S 28°06' E 154°11'416.0
2017-Aug-15 00:58S 28°10' E 154°11'816.0
2017-Aug-15 00:29S 28°18' E 154°10'1115.8
2017-Aug-14 23:48S 28°29' E 154°10'25016.0
2017-Aug-14 08:08S 32°31' E 152°56'317.9
2017-Aug-14 07:59S 32°34' E 152°55'818.0
2017-Aug-14 07:30S 32°42' E 152°51'1418.5
2017-Aug-14 06:46S 32°54' E 152°44'518.4
2017-Aug-14 06:30S 32°59' E 152°42'1017.9
2017-Aug-14 05:57S 33°07' E 152°37'32416.4
2017-Aug-13 10:11S 37°57' E 149°37'1915.5
2017-Aug-13 08:55S 38°10' E 149°18'815.4
2017-Aug-13 08:25S 38°14' E 149°10'716.0
2017-Aug-13 08:00S 38°18' E 149°03'816.0
2017-Aug-13 07:30S 38°23' E 148°55'816.1
2017-Aug-13 06:59S 38°28' E 148°47'816.0
2017-Aug-13 06:30S 38°33' E 148°39'916.1
2017-Aug-13 05:57S 38°38' E 148°30'17311.4
2017-Aug-12 14:48S 37°60' E 144°55'514.4
2017-Aug-12 14:27S 37°55' E 144°55'4 8.5
2017-Aug-12 13:59S 37°51' E 144°54'0 0.1
2017-Aug-12 13:25S 37°51' E 144°54'0 0.0
2017-Aug-12 12:55S 37°51' E 144°54'0 0.0
2017-Aug-12 12:28S 37°51' E 144°54'0 0.0
2017-Aug-12 11:46S 37°51' E 144°54'0 0.0
2017-Aug-12 11:22S 37°51' E 144°54'0 0.0
2017-Aug-12 10:58S 37°51' E 144°54'0 0.0
2017-Aug-12 10:28S 37°51' E 144°54'0 0.0
2017-Aug-12 09:58S 37°51' E 144°54'0 0.0
2017-Aug-12 09:25S 37°51' E 144°54'0 0.0
2017-Aug-12 08:55S 37°51' E 144°54'0 0.0
2017-Aug-12 08:25S 37°51' E 144°54'0 0.0
2017-Aug-12 07:58S 37°51' E 144°54'0 0.0
2017-Aug-12 06:40S 37°51' E 144°54'0 0.0
2017-Aug-12 06:28S 37°51' E 144°54'0 0.0
2017-Aug-12 05:58S 37°51' E 144°54'0 0.0
2017-Aug-12 05:10S 37°51' E 144°54'0 0.0
2017-Aug-12 04:58S 37°51' E 144°54'0 0.0
2017-Aug-12 04:25S 37°51' E 144°54'0 0.0
2017-Aug-12 03:49S 37°51' E 144°54'0 0.0
2017-Aug-12 03:28S 37°51' E 144°54'0 0.0
2017-Aug-12 02:55S 37°51' E 144°54'0 0.0
2017-Aug-12 02:28S 37°51' E 144°54'0 0.0
2017-Aug-12 01:40S 37°51' E 144°54'0 0.0
2017-Aug-12 01:28S 37°51' E 144°54'0 0.0
2017-Aug-12 00:40S 37°51' E 144°54'0 0.0
2017-Aug-12 00:22S 37°51' E 144°54'0 0.0
2017-Aug-11 23:49S 37°51' E 144°54'0 0.0
2017-Aug-11 23:19S 37°51' E 144°54'0 0.0
2017-Aug-11 22:56S 37°51' E 144°54'1 1.3
2017-Aug-11 22:28S 37°51' E 144°55'510.3
2017-Aug-11 22:00S 37°56' E 144°55'713.5
2017-Aug-11 21:30S 38°03' E 144°56'36811.4
2017-Aug-10 13:07S 34°47' E 138°28'2 7.6
2017-Aug-10 12:54S 34°46' E 138°29'  

Dump ship's entire track history